Time;durP1;ratioP1;P1;durP2;ratioP2;P2;SDS_P1;SDS_P2;PMS_P1;PMS_P2;Temp;Humidity;BMP_temperature;BMP_pressure;BME280_temperature;BME280_humidity;BME280_pressure;Samples;Min_cycle;Max_cycle;Signal;HPM_P1;HPM_P2
2022/11/12 00:00:21;;;;;;;50.45;27.05;;;;;;;;;;4911292;29;20213;-58
2022/11/12 00:03:12;;;;;;;71.78;32.38;;;;;;;;;;4918548;29;20705;-58
2022/11/12 00:05:58;;;;;;;58.13;31.17;;;;;;;;;;4919209;29;20247;-57
2022/11/12 00:08:43;;;;;;;53.42;28.77;;;;;;;;;;4918905;29;20252;-58
2022/11/12 00:11:28;;;;;;;53.60;28.17;;;;;;;;;;4918536;29;20212;-58
2022/11/12 00:14:14;;;;;;;50.45;27.52;;;;;;;;;;4919004;29;20544;-58
2022/11/12 00:17:00;;;;;;;59.60;28.60;;;;;;;;;;4878653;29;20223;-58
2022/11/12 00:19:45;;;;;;;63.28;28.73;;;;;;;;;;4918718;29;20201;-57
2022/11/12 00:22:31;;;;;;;51.45;27.48;;;;;;;;;;4918664;29;20216;-57
2022/11/12 00:25:17;;;;;;;57.42;27.83;;;;;;;;;;4918681;29;20533;-57
2022/11/12 00:28:04;;;;;;;56.50;29.70;;;;;;;;;;4918651;29;20209;-58
2022/11/12 00:30:50;;;;;;;60.30;28.33;;;;;;;;;;4922309;29;20295;-58
2022/11/12 00:33:39;;;;;;;51.67;28.25;;;;;;;;;;4922655;29;20216;-57
2022/11/12 00:36:25;;;;;;;55.97;28.33;;;;;;;;;;4922765;29;20237;-56
2022/11/12 00:39:10;;;;;;;63.92;29.40;;;;;;;;;;4922885;29;20280;-57
2022/11/12 00:41:56;;;;;;;52.83;28.20;;;;;;;;;;4922306;29;20311;-58
2022/11/12 00:44:41;;;;;;;57.08;26.77;;;;;;;;;;4922382;29;20197;-58
2022/11/12 00:47:27;;;;;;;70.70;32.92;;;;;;;;;;4922301;29;20398;-58
2022/11/12 00:50:14;;;;;;;60.80;29.92;;;;;;;;;;4922283;29;20204;-58
2022/11/12 00:53:00;;;;;;;65.53;30.05;;;;;;;;;;4922617;29;20227;-55
2022/11/12 00:55:46;;;;;;;59.03;28.25;;;;;;;;;;4922232;29;20204;-58
2022/11/12 00:58:32;;;;;;;68.32;34.10;;;;;;;;;;4922055;29;20216;-57
2022/11/12 01:01:18;;;;;;;65.68;32.63;;;;;;;;;;4921730;29;20236;-57
2022/11/12 01:04:04;;;;;;;57.13;29.88;;;;;;;;;;4921608;29;20264;-58
2022/11/12 01:06:50;;;;;;;61.00;29.90;;;;;;;;;;4921974;29;20648;-58
2022/11/12 01:09:36;;;;;;;60.70;30.63;;;;;;;;;;4921642;29;20344;-58
2022/11/12 01:12:22;;;;;;;61.15;30.40;;;;;;;;;;4921579;29;20220;-58
2022/11/12 01:15:08;;;;;;;62.13;29.30;;;;;;;;;;4921736;29;20215;-58
2022/11/12 01:17:54;;;;;;;69.82;32.55;;;;;;;;;;4921774;29;20204;-58
2022/11/12 01:20:39;;;;;;;64.63;31.88;;;;;;;;;;4922154;29;20208;-57
2022/11/12 01:23:25;;;;;;;61.97;33.15;;;;;;;;;;4921628;29;20631;-56
2022/11/12 01:26:13;;;;;;;71.70;34.63;;;;;;;;;;4921559;29;20215;-59
2022/11/12 01:28:59;;;;;;;64.35;32.40;;;;;;;;;;4921988;29;20522;-57
2022/11/12 01:31:44;;;;;;;73.35;32.63;;;;;;;;;;4921739;29;20228;-58
2022/11/12 01:34:30;;;;;;;71.68;32.30;;;;;;;;;;4921125;29;20553;-57
2022/11/12 01:37:15;;;;;;;70.07;32.03;;;;;;;;;;4921192;29;20209;-58
2022/11/12 01:40:01;;;;;;;68.90;32.15;;;;;;;;;;4921000;29;20624;-57
2022/11/12 01:42:51;;;;;;;68.15;31.80;;;;;;;;;;4920592;29;20239;-58
2022/11/12 01:45:39;;;;;;;62.78;31.13;;;;;;;;;;4921641;29;20208;-56
2022/11/12 01:48:32;;;;;;;72.82;34.38;;;;;;;;;;4907526;29;20216;-58
2022/11/12 01:51:20;;;;;;;81.00;35.90;;;;;;;;;;4907525;29;20201;-58
2022/11/12 01:54:08;;;;;;;73.35;33.60;;;;;;;;;;4906933;29;20242;-57
2022/11/12 01:56:56;;;;;;;77.80;32.67;;;;;;;;;;4921246;29;20276;-58
2022/11/12 01:59:44;;;;;;;75.78;33.90;;;;;;;;;;4921507;29;20239;-57
2022/11/12 02:02:30;;;;;;;73.95;33.70;;;;;;;;;;4921014;29;20300;-58
2022/11/12 02:05:16;;;;;;;76.57;35.10;;;;;;;;;;4920992;29;20576;-57
2022/11/12 02:08:03;;;;;;;83.00;34.42;;;;;;;;;;4907440;29;20208;-58
2022/11/12 02:10:49;;;;;;;75.47;34.45;;;;;;;;;;4920766;29;20209;-57
2022/11/12 02:16:42;;;;;;;83.38;38.13;;;;;;;;;;4920449;29;20636;-58
2022/11/12 02:19:28;;;;;;;77.57;35.72;;;;;;;;;;4920349;29;20252;-57
2022/11/12 02:22:13;;;;;;;84.43;37.10;;;;;;;;;;4920314;29;20235;-58
2022/11/12 02:24:59;;;;;;;88.93;36.13;;;;;;;;;;4920857;29;20215;-58
2022/11/12 02:27:44;;;;;;;79.20;35.53;;;;;;;;;;4920462;29;20542;-57
2022/11/12 02:30:35;;;;;;;74.75;35.40;;;;;;;;;;4906520;29;20209;-56
2022/11/12 02:33:21;;;;;;;81.38;34.95;;;;;;;;;;4920575;29;20529;-58
2022/11/12 02:36:06;;;;;;;78.53;35.97;;;;;;;;;;4920320;29;20561;-57
2022/11/12 02:38:52;;;;;;;89.20;44.90;;;;;;;;;;4919970;29;20216;-58
2022/11/12 02:41:38;;;;;;;82.72;37.38;;;;;;;;;;4920369;29;20255;-58
2022/11/12 02:44:23;;;;;;;77.70;36.50;;;;;;;;;;4920227;29;20200;-58
2022/11/12 02:47:08;;;;;;;83.47;35.88;;;;;;;;;;4919940;29;20205;-57
2022/11/12 02:49:54;;;;;;;80.93;37.05;;;;;;;;;;4920242;29;20225;-56
2022/11/12 02:52:39;;;;;;;81.72;35.50;;;;;;;;;;4919518;29;20208;-57
2022/11/12 02:55:24;;;;;;;80.35;36.63;;;;;;;;;;4920083;29;20508;-58
2022/11/12 02:58:10;;;;;;;74.85;35.25;;;;;;;;;;4920562;29;20528;-58
2022/11/12 03:00:55;;;;;;;77.50;35.92;;;;;;;;;;4919588;29;20193;-57
2022/11/12 03:03:41;;;;;;;84.15;35.50;;;;;;;;;;4919487;29;20691;-58
2022/11/12 03:06:26;;;;;;;88.70;39.53;;;;;;;;;;4919935;29;20193;-58
2022/11/12 03:09:12;;;;;;;87.97;38.70;;;;;;;;;;4919702;29;20652;-57
2022/11/12 03:11:57;;;;;;;84.65;36.47;;;;;;;;;;4919730;29;20220;-58
2022/11/12 03:14:43;;;;;;;86.28;38.08;;;;;;;;;;4919309;29;20212;-57
2022/11/12 03:17:29;;;;;;;85.57;37.63;;;;;;;;;;4920045;29;20539;-58
2022/11/12 03:20:15;;;;;;;79.07;37.55;;;;;;;;;;4919811;29;20232;-58
2022/11/12 03:23:03;;;;;;;83.13;37.50;;;;;;;;;;4919146;29;20240;-58
2022/11/12 03:25:49;;;;;;;90.65;39.72;;;;;;;;;;4919214;29;20554;-58
2022/11/12 03:28:35;;;;;;;96.90;37.83;;;;;;;;;;4919392;29;20341;-58
2022/11/12 03:31:20;;;;;;;90.65;40.05;;;;;;;;;;4919578;29;20272;-57
2022/11/12 03:34:05;;;;;;;94.13;40.22;;;;;;;;;;4919563;29;20515;-57
2022/11/12 03:36:51;;;;;;;82.70;38.90;;;;;;;;;;4919252;29;20537;-58
2022/11/12 03:39:36;;;;;;;90.20;39.42;;;;;;;;;;4919458;29;20215;-57
2022/11/12 03:42:22;;;;;;;86.57;40.22;;;;;;;;;;4919095;29;20228;-58
2022/11/12 03:45:07;;;;;;;94.47;41.97;;;;;;;;;;4919212;29;20207;-58
2022/11/12 03:47:55;;;;;;;92.55;40.97;;;;;;;;;;4918778;29;20203;-58
2022/11/12 03:50:40;;;;;;;86.90;40.33;;;;;;;;;;4919052;29;20208;-57
2022/11/12 03:53:26;;;;;;;88.65;39.08;;;;;;;;;;4918819;29;20208;-58
2022/11/12 03:56:11;;;;;;;116.50;62.22;;;;;;;;;;4918572;29;20628;-58
2022/11/12 03:58:58;;;;;;;85.93;40.00;;;;;;;;;;4918883;29;20209;-57
2022/11/12 04:01:43;;;;;;;77.47;37.15;;;;;;;;;;4918662;29;20667;-58
2022/11/12 04:08:34;;;;;;;83.43;37.63;;;;;;;;;;4917984;29;20248;-56
2022/11/12 04:10:39;;;;;;;75.80;36.50;;;;;;;;;;4918383;29;20217;-57
2022/11/12 04:13:27;;;;;;;74.88;36.10;;;;;;;;;;4918864;29;20218;-58
2022/11/12 04:22:26;;;;;;;181.95;75.63;;;;;;;;;;4918286;29;20232;-57
2022/11/12 04:28:15;;;;;;;81.60;37.83;;;;;;;;;;4918906;29;20215;-58
2022/11/12 04:31:00;;;;;;;73.97;35.17;;;;;;;;;;4918674;29;20287;-58
2022/11/12 04:33:46;;;;;;;66.88;34.10;;;;;;;;;;4918477;29;20271;-58
2022/11/12 04:36:31;;;;;;;83.32;37.47;;;;;;;;;;4917365;29;20283;-57
2022/11/12 04:39:16;;;;;;;78.75;34.85;;;;;;;;;;4918513;29;20264;-57
2022/11/12 04:45:10;;;;;;;83.20;35.78;;;;;;;;;;4917738;29;20209;-57
2022/11/12 04:47:55;;;;;;;78.78;35.63;;;;;;;;;;4918507;29;20209;-57
2022/11/12 04:50:42;;;;;;;128.93;53.40;;;;;;;;;;4918325;29;20632;-57
2022/11/12 04:53:28;;;;;;;76.00;36.00;;;;;;;;;;4918303;29;20216;-57
2022/11/12 04:56:15;;;;;;;73.50;33.63;;;;;;;;;;4918438;29;20209;-57
2022/11/12 04:59:00;;;;;;;78.10;34.95;;;;;;;;;;4890882;29;20219;-58
2022/11/12 05:01:46;;;;;;;76.95;33.60;;;;;;;;;;4918460;29;20535;-58
2022/11/12 05:04:32;;;;;;;66.40;34.75;;;;;;;;;;4918654;29;20260;-57
2022/11/12 05:07:17;;;;;;;72.28;33.20;;;;;;;;;;4918644;29;20197;-57
2022/11/12 05:10:03;;;;;;;82.15;33.25;;;;;;;;;;4918147;29;20629;-56
2022/11/12 05:12:49;;;;;;;68.60;32.60;;;;;;;;;;4918102;29;20208;-56
2022/11/12 05:15:35;;;;;;;96.20;56.03;;;;;;;;;;4919537;29;20291;-57
2022/11/12 05:18:20;;;;;;;88.20;38.25;;;;;;;;;;4921433;29;20636;-57
2022/11/12 05:22:04;;;;;;;72.95;35.75;;;;;;;;;;4921221;29;20208;-57
2022/11/12 05:24:11;;;;;;;75.85;32.55;;;;;;;;;;4921026;29;20783;-57
2022/11/12 05:27:19;;;;;;;75.15;34.78;;;;;;;;;;4921133;29;20227;-58
2022/11/12 05:30:06;;;;;;;80.07;35.47;;;;;;;;;;4921261;29;20593;-58
2022/11/12 05:32:52;;;;;;;77.90;33.17;;;;;;;;;;4921292;29;20230;-58
2022/11/12 05:35:37;;;;;;;75.55;35.72;;;;;;;;;;4921012;29;20243;-57
2022/11/12 05:38:22;;;;;;;80.95;33.75;;;;;;;;;;4920871;29;20287;-57
2022/11/12 05:41:08;;;;;;;76.93;34.33;;;;;;;;;;4921436;29;20200;-57
2022/11/12 05:43:54;;;;;;;81.15;37.30;;;;;;;;;;4920732;29;20245;-57
2022/11/12 05:46:39;;;;;;;76.22;36.20;;;;;;;;;;4920675;29;20219;-57
2022/11/12 05:49:24;;;;;;;62.75;32.13;;;;;;;;;;4920702;29;20268;-58
2022/11/12 05:52:10;;;;;;;73.63;33.20;;;;;;;;;;4920701;29;20205;-57
2022/11/12 05:54:56;;;;;;;74.07;33.17;;;;;;;;;;4920569;29;20245;-58
2022/11/12 05:57:41;;;;;;;72.43;33.03;;;;;;;;;;4920800;29;20644;-58
2022/11/12 06:00:27;;;;;;;73.18;31.88;;;;;;;;;;4920528;29;20321;-57
2022/11/12 06:03:12;;;;;;;62.42;31.90;;;;;;;;;;4920351;29;20232;-56
2022/11/12 06:05:58;;;;;;;76.95;32.88;;;;;;;;;;4920680;29;20217;-57
2022/11/12 06:08:44;;;;;;;81.15;41.38;;;;;;;;;;4920748;29;20216;-57
2022/11/12 06:11:29;;;;;;;77.85;37.63;;;;;;;;;;4920283;29;20261;-58
2022/11/12 06:14:15;;;;;;;61.33;33.00;;;;;;;;;;4920565;29;20655;-57
2022/11/12 06:17:00;;;;;;;62.25;30.52;;;;;;;;;;4920212;29;20189;-57
2022/11/12 06:19:45;;;;;;;61.28;31.58;;;;;;;;;;4920370;29;20628;-57
2022/11/12 06:22:31;;;;;;;58.83;30.95;;;;;;;;;;4920934;29;20239;-58
2022/11/12 06:25:17;;;;;;;62.92;30.13;;;;;;;;;;4920970;29;20619;-58
2022/11/12 06:28:02;;;;;;;55.70;30.75;;;;;;;;;;4918102;29;20231;-59
2022/11/12 06:30:48;;;;;;;60.72;30.88;;;;;;;;;;4908436;29;20220;-59
2022/11/12 06:33:33;;;;;;;64.57;30.48;;;;;;;;;;4920176;29;20674;-58
2022/11/12 06:36:19;;;;;;;90.93;42.10;;;;;;;;;;4920275;29;20208;-58
2022/11/12 06:39:05;;;;;;;54.70;31.98;;;;;;;;;;4917762;29;20248;-59
2022/11/12 06:41:51;;;;;;;56.25;31.02;;;;;;;;;;4918838;29;20638;-57
2022/11/12 06:44:36;;;;;;;60.13;31.60;;;;;;;;;;4922955;29;20308;-62
2022/11/12 06:47:22;;;;;;;65.30;32.55;;;;;;;;;;4919484;29;20224;-56
2022/11/12 06:50:07;;;;;;;61.20;29.15;;;;;;;;;;4918846;29;20224;-59
2022/11/12 06:52:57;;;;;;;60.28;31.25;;;;;;;;;;4918033;29;20228;-59
2022/11/12 06:55:42;;;;;;;64.07;30.30;;;;;;;;;;4918846;29;20244;-56
2022/11/12 06:58:28;;;;;;;56.13;31.42;;;;;;;;;;4923746;29;20231;-59
2022/11/12 07:01:16;;;;;;;252.90;130.30;;;;;;;;;;4908224;29;20315;-59
2022/11/12 07:04:02;;;;;;;112.60;49.47;;;;;;;;;;4919380;29;20252;-60
2022/11/12 07:06:47;;;;;;;67.72;33.67;;;;;;;;;;4927561;29;20243;-59
2022/11/12 07:09:33;;;;;;;54.70;30.75;;;;;;;;;;4924172;29;20224;-58
2022/11/12 07:12:19;;;;;;;60.63;30.33;;;;;;;;;;4923923;29;20228;-58
2022/11/12 07:17:27;;;;;;;54.80;29.40;;;;;;;;;;5091783;28;21298;-63
2022/11/12 07:20:13;;;;;;;52.70;29.88;;;;;;;;;;5091292;28;20524;-59
2022/11/12 07:23:00;;;;;;;56.67;30.77;;;;;;;;;;5091364;28;20252;-54
2022/11/12 07:25:46;;;;;;;64.03;30.75;;;;;;;;;;5091123;28;20667;-59
2022/11/12 07:28:31;;;;;;;129.13;60.40;;;;;;;;;;5084987;28;20309;-59
2022/11/12 07:31:18;;;;;;;65.05;33.17;;;;;;;;;;5084506;28;20223;-59
2022/11/12 07:34:04;;;;;;;49.58;28.63;;;;;;;;;;5071257;28;20601;-59
2022/11/12 07:36:50;;;;;;;46.67;27.17;;;;;;;;;;5071134;28;20276;-57
2022/11/12 07:39:36;;;;;;;47.88;27.15;;;;;;;;;;5071032;28;20215;-55
2022/11/12 07:42:21;;;;;;;53.40;28.70;;;;;;;;;;5071041;28;20215;-57
2022/11/12 07:45:07;;;;;;;49.47;27.67;;;;;;;;;;5085171;28;20206;-56
2022/11/12 07:47:53;;;;;;;48.13;27.02;;;;;;;;;;5079995;28;20219;-56
2022/11/12 07:50:38;;;;;;;53.80;28.63;;;;;;;;;;5070942;28;20288;-54
2022/11/12 07:53:24;;;;;;;56.38;29.92;;;;;;;;;;5070438;28;20227;-56
2022/11/12 07:56:12;;;;;;;78.55;38.92;;;;;;;;;;5085158;28;20231;-58
2022/11/12 07:58:58;;;;;;;56.38;31.00;;;;;;;;;;5089186;28;20237;-58
2022/11/12 08:01:44;;;;;;;51.38;28.90;;;;;;;;;;5088087;28;20219;-58
2022/11/12 08:04:30;;;;;;;45.58;28.08;;;;;;;;;;5090708;28;20671;-59
2022/11/12 08:07:15;;;;;;;53.67;28.60;;;;;;;;;;5090756;28;20332;-58
2022/11/12 08:10:01;;;;;;;44.33;27.52;;;;;;;;;;5086881;28;20589;-59
2022/11/12 08:12:46;;;;;;;50.60;28.85;;;;;;;;;;5088503;27;20242;-58
2022/11/12 08:15:32;;;;;;;52.70;27.52;;;;;;;;;;5090497;28;20230;-59
2022/11/12 08:18:18;;;;;;;51.40;28.27;;;;;;;;;;5084498;28;20215;-58
2022/11/12 08:21:06;;;;;;;72.38;38.78;;;;;;;;;;5080011;28;20223;-59
2022/11/12 08:23:52;;;;;;;53.80;30.02;;;;;;;;;;5081728;28;20230;-58
2022/11/12 08:26:38;;;;;;;53.88;29.05;;;;;;;;;;5089516;28;20606;-59
2022/11/12 08:29:23;;;;;;;53.17;29.13;;;;;;;;;;5076733;28;20230;-59
2022/11/12 08:32:09;;;;;;;55.70;28.75;;;;;;;;;;5076140;28;20956;-59
2022/11/12 08:34:54;;;;;;;51.88;29.00;;;;;;;;;;5076671;28;20661;-58
2022/11/12 08:37:40;;;;;;;44.83;26.80;;;;;;;;;;5076682;28;20247;-58
2022/11/12 08:40:27;;;;;;;50.80;27.00;;;;;;;;;;5076572;28;20223;-59
2022/11/12 08:43:13;;;;;;;51.47;27.02;;;;;;;;;;5076470;28;20230;-59
2022/11/12 08:45:59;;;;;;;76.13;38.83;;;;;;;;;;5076425;28;20223;-59
2022/11/12 08:48:45;;;;;;;89.07;35.97;;;;;;;;;;5076277;28;20308;-59
2022/11/12 08:51:31;;;;;;;61.65;30.63;;;;;;;;;;5076344;28;20547;-59
2022/11/12 08:54:16;;;;;;;69.50;29.40;;;;;;;;;;5076240;28;20242;-59
2022/11/12 08:57:01;;;;;;;51.03;26.42;;;;;;;;;;5076094;28;20336;-59
2022/11/12 08:59:47;;;;;;;45.33;26.17;;;;;;;;;;5076601;28;20261;-59
2022/11/12 09:02:33;;;;;;;42.30;26.05;;;;;;;;;;5072746;28;20337;-59
2022/11/12 09:05:18;;;;;;;43.47;25.48;;;;;;;;;;5074655;28;20249;-59
2022/11/12 09:08:06;;;;;;;48.40;25.00;;;;;;;;;;5075531;28;20609;-59
2022/11/12 09:10:51;;;;;;;258.27;112.10;;;;;;;;;;5074746;28;20195;-59
2022/11/12 09:13:37;;;;;;;112.78;56.90;;;;;;;;;;5074423;28;20184;-59
2022/11/12 09:16:23;;;;;;;47.90;27.83;;;;;;;;;;5074269;28;20257;-59
2022/11/12 09:19:09;;;;;;;40.05;25.20;;;;;;;;;;5074855;28;20187;-58
2022/11/12 09:21:54;;;;;;;34.60;23.15;;;;;;;;;;5074959;28;20187;-59
2022/11/12 09:24:39;;;;;;;49.97;24.75;;;;;;;;;;5075945;28;20196;-59
2022/11/12 09:27:28;;;;;;;50.50;28.00;;;;;;;;;;5076138;28;20566;-59
2022/11/12 09:30:14;;;;;;;42.67;24.58;;;;;;;;;;5075736;28;20196;-59
2022/11/12 09:33:00;;;;;;;40.88;24.63;;;;;;;;;;5076790;28;20192;-59
2022/11/12 09:35:46;;;;;;;45.03;24.50;;;;;;;;;;5076143;28;20199;-59
2022/11/12 09:38:32;;;;;;;56.47;28.55;;;;;;;;;;5074129;28;20195;-58
2022/11/12 09:41:24;;;;;;;42.92;26.73;;;;;;;;;;5071000;28;20207;-59
2022/11/12 09:44:14;;;;;;;46.33;24.80;;;;;;;;;;5075422;28;20191;-59
2022/11/12 09:47:06;;;;;;;32.70;22.52;;;;;;;;;;5076074;28;20214;-59
2022/11/12 09:50:28;;;;;;;36.88;22.80;;;;;;;;;;5075291;28;20237;-59
2022/11/12 09:53:16;;;;;;;36.00;22.40;;;;;;;;;;5074120;28;20214;-59
2022/11/12 09:56:05;;;;;;;52.03;26.23;;;;;;;;;;5074993;28;20203;-59
2022/11/12 09:58:51;;;;;;;41.33;23.20;;;;;;;;;;5071489;28;20621;-59
2022/11/12 10:01:39;;;;;;;32.10;20.77;;;;;;;;;;5075600;28;20210;-59
2022/11/12 10:04:25;;;;;;;31.60;20.67;;;;;;;;;;5075575;28;20176;-59
2022/11/12 10:07:31;;;;;;;37.92;21.20;;;;;;;;;;5075462;28;20617;-58
2022/11/12 10:10:46;;;;;;;33.60;18.58;;;;;;;;;;5059568;28;20241;-58
2022/11/12 10:13:56;;;;;;;26.73;17.65;;;;;;;;;;5062673;28;20668;-58
2022/11/12 10:16:56;;;;;;;28.55;17.35;;;;;;;;;;5074730;28;20555;-57
2022/11/12 10:19:55;;;;;;;27.90;17.27;;;;;;;;;;5071139;28;20231;-59
2022/11/12 10:23:00;;;;;;;36.22;20.25;;;;;;;;;;5072312;28;20288;-59
2022/11/12 10:25:48;;;;;;;34.25;19.38;;;;;;;;;;5071272;28;20374;-59
2022/11/12 10:28:39;;;;;;;29.20;19.85;;;;;;;;;;5070197;28;20730;-58
2022/11/12 10:31:24;;;;;;;40.35;20.23;;;;;;;;;;5071989;28;20257;-61
2022/11/12 10:34:20;;;;;;;51.50;24.63;;;;;;;;;;5073800;28;20223;-60
2022/11/12 10:37:11;;;;;;;33.92;19.23;;;;;;;;;;5074283;28;20235;-60
2022/11/12 10:39:57;;;;;;;29.13;15.60;;;;;;;;;;5073002;28;20301;-60
2022/11/12 10:42:56;;;;;;;28.33;16.60;;;;;;;;;;5070851;28;20292;-61
2022/11/12 10:45:46;;;;;;;28.23;16.52;;;;;;;;;;5071536;28;20617;-61
2022/11/12 10:48:32;;;;;;;37.30;19.63;;;;;;;;;;5071660;28;20219;-61
2022/11/12 10:51:25;;;;;;;31.08;17.85;;;;;;;;;;5070824;28;20219;-62
2022/11/12 10:54:45;;;;;;;49.35;22.55;;;;;;;;;;5071390;28;20227;-61
2022/11/12 10:57:38;;;;;;;31.17;19.33;;;;;;;;;;5071223;28;20364;-61
2022/11/12 11:00:24;;;;;;;28.77;18.63;;;;;;;;;;5071396;28;20231;-61
2022/11/12 11:03:20;;;;;;;43.70;22.75;;;;;;;;;;5071391;28;20550;-61
2022/11/12 11:06:18;;;;;;;27.23;18.13;;;;;;;;;;5066394;28;20215;-60
2022/11/12 11:09:10;;;;;;;39.63;20.98;;;;;;;;;;5049234;28;20362;-61
2022/11/12 11:11:56;;;;;;;27.20;17.75;;;;;;;;;;5062699;28;20246;-62
2022/11/12 11:14:43;;;;;;;31.58;16.67;;;;;;;;;;5067972;28;20219;-61
2022/11/12 11:17:29;;;;;;;36.22;16.75;;;;;;;;;;5066208;28;20246;-61
2022/11/12 11:20:28;;;;;;;33.53;18.00;;;;;;;;;;5070516;28;20334;-62
2022/11/12 11:23:21;;;;;;;75.53;31.33;;;;;;;;;;5054579;28;20227;-61
2022/11/12 11:26:20;;;;;;;35.03;18.58;;;;;;;;;;5055094;28;20242;-61
2022/11/12 11:29:17;;;;;;;26.83;16.42;;;;;;;;;;5071600;28;20227;-61
2022/11/12 11:32:19;;;;;;;31.83;18.15;;;;;;;;;;5070335;28;20574;-61
2022/11/12 11:35:28;;;;;;;30.77;17.10;;;;;;;;;;5070647;28;20280;-61
2022/11/12 11:38:44;;;;;;;24.50;17.17;;;;;;;;;;5067959;28;20601;-61
2022/11/12 11:42:04;;;;;;;30.90;17.85;;;;;;;;;;5072428;28;20269;-61
2022/11/12 11:44:49;;;;;;;35.55;23.13;;;;;;;;;;5065518;28;20219;-61
2022/11/12 11:48:03;;;;;;;30.40;19.75;;;;;;;;;;5070691;28;20219;-61
2022/11/12 11:51:25;;;;;;;34.80;20.48;;;;;;;;;;5085086;28;20222;-61
2022/11/12 11:54:44;;;;;;;32.05;19.83;;;;;;;;;;5070314;28;20272;-60
2022/11/12 11:58:04;;;;;;;30.65;20.15;;;;;;;;;;5069248;28;20241;-61
2022/11/12 12:01:00;;;;;;;30.35;20.23;;;;;;;;;;5069529;28;20223;-60
2022/11/12 12:04:10;;;;;;;30.30;18.77;;;;;;;;;;5070618;28;20211;-60
2022/11/12 12:07:04;;;;;;;28.30;17.70;;;;;;;;;;5072608;28;20218;-60
2022/11/12 12:10:02;;;;;;;31.90;18.08;;;;;;;;;;5072886;28;20376;-60
2022/11/12 12:13:00;;;;;;;87.15;47.05;;;;;;;;;;5073090;28;20233;-60
2022/11/12 12:16:15;;;;;;;41.78;22.90;;;;;;;;;;5070348;28;20377;-61
2022/11/12 12:19:16;;;;;;;33.17;19.60;;;;;;;;;;5072490;28;20235;-60
2022/11/12 12:22:04;;;;;;;37.40;21.35;;;;;;;;;;5071994;28;20234;-60
2022/11/12 12:24:54;;;;;;;42.72;23.60;;;;;;;;;;5071690;28;20273;-60
2022/11/12 12:27:59;;;;;;;24.15;18.23;;;;;;;;;;5070955;28;20474;-60
2022/11/12 12:30:48;;;;;;;31.27;21.00;;;;;;;;;;5069823;28;20215;-59
2022/11/12 12:33:36;;;;;;;36.10;22.05;;;;;;;;;;5070785;28;20225;-59
2022/11/12 12:36:30;;;;;;;41.92;25.60;;;;;;;;;;5072052;28;20249;-59
2022/11/12 12:39:26;;;;;;;47.38;26.23;;;;;;;;;;5071105;28;20223;-62
2022/11/12 12:42:17;;;;;;;39.88;25.55;;;;;;;;;;5070189;28;20235;-60
2022/11/12 12:45:57;;;;;;;39.42;24.65;;;;;;;;;;5064041;28;20269;-58
2022/11/12 12:48:45;;;;;;;45.88;28.15;;;;;;;;;;5059315;28;20280;-58
2022/11/12 12:51:31;;;;;;;48.28;29.25;;;;;;;;;;5044121;28;20266;-60
2022/11/12 12:54:35;;;;;;;35.90;25.88;;;;;;;;;;5045959;28;20191;-57
2022/11/12 12:57:27;;;;;;;39.53;27.55;;;;;;;;;;5061284;28;20223;-58
2022/11/12 13:00:37;;;;;;;39.95;26.45;;;;;;;;;;5061935;28;20192;-57
2022/11/12 13:04:01;;;;;;;41.80;25.77;;;;;;;;;;5042387;28;20200;-63
2022/11/12 13:06:49;;;;;;;63.03;33.47;;;;;;;;;;5002158;28;20633;-56
2022/11/12 13:09:34;;;;;;;41.40;26.25;;;;;;;;;;4999665;28;20634;-58
2022/11/12 13:12:58;;;;;;;42.00;25.38;;;;;;;;;;4999783;28;20241;-59
2022/11/12 13:15:52;;;;;;;44.78;28.77;;;;;;;;;;5003336;28;20345;-55
2022/11/12 13:18:41;;;;;;;53.85;31.92;;;;;;;;;;4999210;28;20300;-59
2022/11/12 13:21:26;;;;;;;44.22;29.05;;;;;;;;;;4999833;28;20295;-59
2022/11/12 13:24:13;;;;;;;50.33;30.10;;;;;;;;;;5015359;28;20240;-62
2022/11/12 13:26:59;;;;;;;53.72;32.10;;;;;;;;;;5029264;28;20317;-59
2022/11/12 13:29:46;;;;;;;56.75;32.78;;;;;;;;;;5026950;28;20220;-59
2022/11/12 13:32:40;;;;;;;49.47;29.15;;;;;;;;;;5031071;28;20678;-58
2022/11/12 13:35:30;;;;;;;48.95;30.35;;;;;;;;;;5026078;28;20982;-60
2022/11/12 13:38:16;;;;;;;50.15;31.65;;;;;;;;;;5025607;28;20252;-60
2022/11/12 13:41:11;;;;;;;54.22;30.25;;;;;;;;;;5060905;28;20220;-57
2022/11/12 13:43:56;;;;;;;47.20;29.75;;;;;;;;;;5068922;28;20230;-59
2022/11/12 13:46:43;;;;;;;52.92;30.95;;;;;;;;;;5072207;28;20192;-60
2022/11/12 13:49:29;;;;;;;44.25;29.55;;;;;;;;;;5070361;28;20288;-58
2022/11/12 13:52:17;;;;;;;55.08;29.98;;;;;;;;;;5073301;28;20203;-57
2022/11/12 13:55:14;;;;;;;58.58;32.47;;;;;;;;;;5071738;28;20195;-57
2022/11/12 13:58:00;;;;;;;70.50;38.20;;;;;;;;;;5070911;28;20223;-62
2022/11/12 14:00:54;;;;;;;43.15;27.02;;;;;;;;;;5071759;28;20179;-57
2022/11/12 14:03:46;;;;;;;50.33;29.38;;;;;;;;;;5071378;28;20204;-58
2022/11/12 14:06:36;;;;;;;45.03;26.67;;;;;;;;;;5069700;28;20195;-54
2022/11/12 14:09:32;;;;;;;47.00;26.27;;;;;;;;;;5067217;28;20223;-56
2022/11/12 14:12:29;;;;;;;45.28;26.45;;;;;;;;;;5071583;28;20227;-54
2022/11/12 14:15:33;;;;;;;48.30;26.38;;;;;;;;;;5071875;28;20238;-57
2022/11/12 14:19:06;;;;;;;54.05;29.67;;;;;;;;;;5072275;28;20309;-56
2022/11/12 14:22:21;;;;;;;42.30;24.60;;;;;;;;;;5044001;28;20300;-56
2022/11/12 14:25:17;;;;;;;43.05;25.08;;;;;;;;;;5025434;28;20220;-53
2022/11/12 14:28:04;;;;;;;43.08;24.02;;;;;;;;;;5012838;28;20221;-51
2022/11/12 14:30:49;;;;;;;43.42;24.67;;;;;;;;;;5026517;28;20262;-54
2022/11/12 14:33:35;;;;;;;44.65;25.52;;;;;;;;;;5030804;28;20266;-54
2022/11/12 14:36:21;;;;;;;49.25;25.92;;;;;;;;;;5030761;28;20228;-51
2022/11/12 14:39:09;;;;;;;52.95;29.67;;;;;;;;;;5029351;28;20224;-56
2022/11/12 14:41:57;;;;;;;44.17;26.80;;;;;;;;;;5008863;28;20415;-51
2022/11/12 14:44:43;;;;;;;49.80;28.10;;;;;;;;;;5010548;28;20236;-51
2022/11/12 14:47:28;;;;;;;51.60;30.50;;;;;;;;;;5011792;28;21358;-49
2022/11/12 14:50:24;;;;;;;68.82;36.80;;;;;;;;;;5012691;28;20225;-48
2022/11/12 14:53:22;;;;;;;54.88;29.77;;;;;;;;;;5012391;28;20221;-50
2022/11/12 14:56:24;;;;;;;75.75;37.22;;;;;;;;;;5012603;28;20287;-53
2022/11/12 14:59:16;;;;;;;71.22;34.97;;;;;;;;;;5012851;28;20702;-49
2022/11/12 15:02:08;;;;;;;58.55;34.60;;;;;;;;;;5045434;28;20228;-50
2022/11/12 15:05:17;;;;;;;60.35;34.17;;;;;;;;;;5054223;28;20220;-47
2022/11/12 15:08:07;;;;;;;61.20;32.83;;;;;;;;;;5053166;28;20285;-55
2022/11/12 15:10:52;;;;;;;67.68;35.13;;;;;;;;;;5052624;28;20235;-49
2022/11/12 15:13:39;;;;;;;58.58;32.20;;;;;;;;;;5053929;28;20231;-49
2022/11/12 15:16:27;;;;;;;57.97;31.17;;;;;;;;;;5068789;28;20235;-54
2022/11/12 15:19:13;;;;;;;57.30;31.67;;;;;;;;;;5073376;28;20235;-57
2022/11/12 15:22:00;;;;;;;58.35;32.40;;;;;;;;;;5073778;28;20231;-55
2022/11/12 15:24:47;;;;;;;61.08;30.63;;;;;;;;;;5073518;28;20277;-56
2022/11/12 15:27:40;;;;;;;48.55;28.35;;;;;;;;;;5072147;28;20222;-53
2022/11/12 15:30:29;;;;;;;55.42;30.80;;;;;;;;;;5072901;28;20281;-62
2022/11/12 15:33:18;;;;;;;54.05;29.55;;;;;;;;;;5071136;28;20231;-57
2022/11/12 15:36:04;;;;;;;51.15;29.25;;;;;;;;;;5070516;28;20224;-61
2022/11/12 15:38:51;;;;;;;51.55;30.85;;;;;;;;;;5073533;28;20320;-60
2022/11/12 15:41:37;;;;;;;50.50;28.08;;;;;;;;;;5076259;28;20226;-61
2022/11/12 15:44:22;;;;;;;53.65;29.77;;;;;;;;;;5072810;28;20301;-61
2022/11/12 15:47:19;;;;;;;51.08;29.67;;;;;;;;;;5062607;28;20253;-61
2022/11/12 15:50:17;;;;;;;51.28;29.27;;;;;;;;;;5061487;28;20229;-57
2022/11/12 15:53:02;;;;;;;65.43;34.92;;;;;;;;;;5074633;28;20671;-60
2022/11/12 15:55:49;;;;;;;47.67;27.40;;;;;;;;;;5075023;28;20219;-54
2022/11/12 15:58:36;;;;;;;52.00;27.52;;;;;;;;;;5075326;28;20680;-50
2022/11/12 16:01:21;;;;;;;54.10;26.77;;;;;;;;;;5074629;28;20229;-59
2022/11/12 16:04:09;;;;;;;53.55;28.85;;;;;;;;;;5054967;28;20219;-60
2022/11/12 16:06:55;;;;;;;55.60;29.80;;;;;;;;;;5070735;28;20241;-56
2022/11/12 16:09:42;;;;;;;74.57;33.70;;;;;;;;;;5075212;28;20253;-57
2022/11/12 16:12:27;;;;;;;57.45;30.55;;;;;;;;;;5054218;28;20241;-56
2022/11/12 16:15:14;;;;;;;60.25;31.25;;;;;;;;;;5064972;28;20663;-61
2022/11/12 16:18:00;;;;;;;56.33;30.25;;;;;;;;;;5073730;28;20261;-59
2022/11/12 16:20:46;;;;;;;56.00;29.50;;;;;;;;;;5074752;28;20223;-56
2022/11/12 16:23:31;;;;;;;57.08;31.65;;;;;;;;;;5074283;28;20238;-58
2022/11/12 16:26:24;;;;;;;61.10;32.80;;;;;;;;;;5074932;28;20721;-56
2022/11/12 16:29:12;;;;;;;59.80;31.20;;;;;;;;;;5070717;28;20215;-57
2022/11/12 16:31:58;;;;;;;69.30;31.65;;;;;;;;;;5073588;28;20224;-52
2022/11/12 16:34:43;;;;;;;63.97;33.55;;;;;;;;;;5070498;28;20288;-56
2022/11/12 16:37:29;;;;;;;67.95;35.90;;;;;;;;;;5057077;28;20227;-57
2022/11/12 16:40:17;;;;;;;73.38;36.65;;;;;;;;;;5070709;28;20235;-63
2022/11/12 16:43:03;;;;;;;67.25;33.53;;;;;;;;;;5071937;28;20231;-58
2022/11/12 16:45:49;;;;;;;59.67;32.05;;;;;;;;;;5070533;28;20304;-60